createdAt,value
2017-01-29T00:00:05.830Z,5.14
2017-01-29T00:00:46.398Z,5.1
2017-01-29T00:01:27.091Z,5.12
2017-01-29T00:02:07.890Z,5.14
2017-01-29T00:02:48.483Z,5.12
2017-01-29T00:03:29.142Z,5.15
2017-01-29T00:04:09.896Z,5.2
2017-01-29T00:04:50.553Z,5.07
2017-01-29T00:05:31.204Z,5.07
2017-01-29T00:06:11.784Z,5.08
2017-01-29T00:06:52.436Z,5.1
2017-01-29T00:07:33.090Z,5.08
2017-01-29T00:08:13.818Z,5.15
2017-01-29T00:08:54.524Z,5.11
2017-01-29T00:09:35.177Z,5.14
2017-01-29T00:10:15.792Z,5.08
2017-01-29T00:10:56.379Z,5.14
2017-01-29T00:11:37.010Z,5.11
2017-01-29T00:12:17.634Z,5.12
2017-01-29T00:12:58.208Z,5.17
2017-01-29T00:13:38.864Z,5.12
2017-01-29T00:14:19.427Z,5.11
2017-01-29T00:15:00.222Z,5.15
2017-01-29T00:15:41.109Z,5.08
2017-01-29T00:16:21.824Z,5.14
2017-01-29T00:17:02.419Z,5.12
2017-01-29T00:17:43.077Z,5.15
2017-01-29T00:18:23.731Z,5.11
2017-01-29T00:19:04.445Z,5.11
2017-01-29T00:19:45.258Z,5.17
2017-01-29T00:20:25.906Z,5.14
2017-01-29T00:21:06.569Z,5.17
2017-01-29T00:21:47.208Z,5.1
2017-01-29T00:22:27.860Z,5.12
2017-01-29T00:23:08.519Z,5.14
2017-01-29T00:23:49.404Z,5.2
2017-01-29T00:24:30.166Z,5.08
2017-01-29T00:25:10.818Z,5.12
2017-01-29T00:25:51.468Z,5.14
2017-01-29T00:26:32.062Z,5.12
2017-01-29T00:27:12.970Z,5.17
2017-01-29T00:27:53.668Z,5.14
2017-01-29T00:28:34.354Z,5.1
2017-01-29T00:29:14.939Z,5.11
2017-01-29T00:29:55.587Z,5.14
2017-01-29T00:30:36.359Z,5.12
2017-01-29T00:31:16.936Z,5.17
2017-01-29T00:31:57.731Z,5.1
2017-01-29T00:32:38.348Z,5.1
2017-01-29T00:33:18.959Z,5.1
2017-01-29T00:33:59.562Z,5.15
2017-01-29T00:34:40.204Z,5.14
2017-01-29T00:35:20.799Z,5.07
2017-01-29T00:36:01.446Z,5.11
2017-01-29T00:36:42.011Z,5.2
2017-01-29T00:37:22.647Z,5.11
2017-01-29T00:38:03.268Z,5.11
2017-01-29T00:38:43.887Z,5.1
2017-01-29T00:39:25.552Z,5.15
2017-01-29T00:40:06.114Z,5.17
2017-01-29T00:40:46.755Z,5.08
2017-01-29T00:41:27.356Z,5.18
2017-01-29T00:42:07.923Z,5.1
2017-01-29T00:42:48.578Z,5.18
2017-01-29T00:43:29.207Z,5.14
2017-01-29T00:44:09.776Z,5.17
2017-01-29T00:44:50.356Z,5.18
2017-01-29T00:45:30.914Z,5.2
2017-01-29T00:46:11.532Z,5.11
2017-01-29T00:46:52.089Z,5.17
2017-01-29T00:47:32.738Z,5.18
2017-01-29T00:48:13.310Z,5.18
2017-01-29T00:48:53.944Z,5.14
2017-01-29T00:49:34.519Z,5.25
2017-01-29T00:50:15.138Z,5.21
2017-01-29T00:50:55.773Z,5.28
2017-01-29T00:51:36.426Z,5.17
2017-01-29T00:52:17.096Z,5.14
2017-01-29T00:52:57.731Z,5.17
2017-01-29T00:53:38.415Z,5.25
2017-01-29T00:54:19.037Z,5.18
2017-01-29T00:54:59.620Z,5.2
2017-01-29T00:55:40.246Z,5.26
2017-01-29T00:56:20.818Z,5.14
2017-01-29T00:57:01.486Z,5.23
2017-01-29T00:57:42.103Z,5.18
2017-01-29T00:58:22.677Z,5.23
2017-01-29T00:59:03.344Z,5.2
2017-01-29T00:59:43.904Z,5.28
2017-01-29T01:00:24.547Z,5.21
2017-01-29T01:01:05.197Z,5.2
2017-01-29T01:01:45.816Z,5.2
2017-01-29T01:02:26.479Z,5.17
2017-01-29T01:03:07.170Z,5.18
2017-01-29T01:03:47.823Z,5.17
2017-01-29T01:04:28.473Z,5.14
2017-01-29T01:05:09.126Z,5.18
2017-01-29T01:05:49.732Z,5.28
2017-01-29T01:06:30.306Z,5.21
2017-01-29T01:07:10.961Z,5.17
2017-01-29T01:07:51.540Z,5.23
2017-01-29T01:08:32.108Z,5.15
2017-01-29T01:09:12.712Z,5.18
2017-01-29T01:09:53.296Z,5.21
2017-01-29T01:10:33.891Z,5.28
2017-01-29T01:11:14.447Z,5.2
2017-01-29T01:11:55.099Z,5.21
2017-01-29T01:12:36.797Z,5.18
2017-01-29T01:13:17.447Z,5.23
2017-01-29T01:13:58.098Z,5.15
2017-01-29T01:14:38.702Z,5.18
2017-01-29T01:15:19.333Z,5.15
2017-01-29T01:15:59.960Z,5.1
2017-01-29T01:16:40.638Z,5.17
2017-01-29T01:17:21.249Z,5.2
2017-01-29T01:18:01.940Z,5.15
2017-01-29T01:18:42.565Z,5.14
2017-01-29T01:19:23.271Z,5.17
2017-01-29T01:20:03.854Z,5.11
2017-01-29T01:20:44.508Z,5.18
2017-01-29T01:21:25.166Z,5.08
2017-01-29T01:22:05.832Z,5.07
2017-01-29T01:22:46.478Z,5.15
2017-01-29T01:23:27.116Z,5.08
2017-01-29T01:24:07.818Z,5.05
2017-01-29T01:24:48.430Z,5.12
2017-01-29T01:25:29.098Z,5.07
2017-01-29T01:26:09.738Z,5.12
2017-01-29T01:26:50.452Z,5.07
2017-01-29T01:27:31.083Z,5.08
2017-01-29T01:28:11.772Z,5.1
2017-01-29T01:28:52.463Z,5.08
2017-01-29T01:29:33.116Z,5.05
2017-01-29T01:30:13.762Z,5.04
2017-01-29T01:30:54.407Z,5
2017-01-29T01:31:34.975Z,4.96
2017-01-29T01:32:15.638Z,4.96
2017-01-29T01:32:56.194Z,4.99
2017-01-29T01:33:36.815Z,4.97
2017-01-29T01:34:17.389Z,4.99
2017-01-29T01:34:58.015Z,4.9
2017-01-29T01:35:38.589Z,5.02
2017-01-29T01:36:19.235Z,5.04
2017-01-29T01:36:59.835Z,4.99
2017-01-29T01:37:40.448Z,5.07
2017-01-29T01:38:21.015Z,5.07
2017-01-29T01:39:01.645Z,4.94
2017-01-29T01:39:42.274Z,5.04
2017-01-29T01:40:22.844Z,5.02
2017-01-29T01:41:03.524Z,4.92
2017-01-29T01:41:44.195Z,5
2017-01-29T01:42:24.775Z,4.94
2017-01-29T01:43:05.379Z,4.96
2017-01-29T01:43:46.045Z,4.94
2017-01-29T01:44:26.692Z,4.96
2017-01-29T01:45:07.348Z,4.89
2017-01-29T01:45:47.943Z,4.84
2017-01-29T01:46:28.525Z,4.86
2017-01-29T01:47:09.169Z,4.9
2017-01-29T01:47:49.799Z,4.78
2017-01-29T01:48:30.377Z,4.78
2017-01-29T01:49:11.053Z,4.82
2017-01-29T01:49:51.656Z,4.77
2017-01-29T01:50:32.223Z,4.73
2017-01-29T01:51:12.887Z,4.8
2017-01-29T01:51:53.464Z,4.73
2017-01-29T01:52:34.062Z,4.78
2017-01-29T01:53:14.634Z,4.71
2017-01-29T01:53:55.288Z,4.63
2017-01-29T01:54:35.891Z,4.62
2017-01-29T01:55:16.469Z,4.66
2017-01-29T01:55:57.130Z,4.7
2017-01-29T01:56:37.782Z,4.63
2017-01-29T01:57:18.344Z,4.63
2017-01-29T01:57:59.959Z,4.7
2017-01-29T01:58:40.526Z,4.67
2017-01-29T01:59:21.160Z,4.7
2017-01-29T02:00:01.723Z,4.66
2017-01-29T02:00:42.316Z,4.6
2017-01-29T02:01:23.660Z,4.63
2017-01-29T02:02:04.234Z,4.58
2017-01-29T02:02:44.878Z,4.66
2017-01-29T02:03:25.463Z,4.58
2017-01-29T02:04:06.147Z,4.6
2017-01-29T02:04:46.742Z,4.59
2017-01-29T02:05:27.346Z,4.59
2017-01-29T02:06:07.946Z,4.59
2017-01-29T02:06:48.629Z,4.59
2017-01-29T02:07:29.301Z,4.62
2017-01-29T02:08:09.910Z,4.67
2017-01-29T02:08:50.487Z,4.63
2017-01-29T02:09:31.159Z,4.6
2017-01-29T02:10:11.758Z,4.56
2017-01-29T02:10:52.312Z,4.66
2017-01-29T02:11:32.911Z,4.66
2017-01-29T02:12:13.491Z,4.62
2017-01-29T02:12:54.088Z,4.7
2017-01-29T02:13:34.723Z,4.63
2017-01-29T02:14:15.289Z,4.68
2017-01-29T02:14:55.939Z,4.68
2017-01-29T02:15:36.582Z,4.66
2017-01-29T02:16:17.153Z,4.62
2017-01-29T02:16:57.788Z,4.63
2017-01-29T02:17:38.379Z,4.62
2017-01-29T02:18:18.981Z,4.66
2017-01-29T02:18:59.538Z,4.67
2017-01-29T02:19:40.139Z,4.67
2017-01-29T02:20:20.734Z,4.68
2017-01-29T02:21:01.314Z,4.63
2017-01-29T02:21:41.956Z,4.66
2017-01-29T02:22:22.605Z,4.67
2017-01-29T02:23:03.297Z,4.7
2017-01-29T02:23:43.977Z,4.73
2017-01-29T02:24:24.640Z,4.68
2017-01-29T02:25:05.311Z,4.67
2017-01-29T02:25:45.981Z,4.68
2017-01-29T02:26:26.619Z,4.67
2017-01-29T02:27:07.179Z,4.63
2017-01-29T02:27:48.793Z,4.59
2017-01-29T02:28:29.392Z,4.63
2017-01-29T02:29:09.960Z,4.67
2017-01-29T02:29:50.616Z,4.66
2017-01-29T02:30:31.197Z,4.68
2017-01-29T02:31:11.819Z,4.63
2017-01-29T02:31:52.393Z,4.6
2017-01-29T02:32:33.025Z,4.58
2017-01-29T02:33:13.664Z,4.62
2017-01-29T02:33:54.207Z,4.62
2017-01-29T02:36:07.565Z,4.59
2017-01-29T02:36:48.182Z,4.6
2017-01-29T02:37:28.830Z,4.63
2017-01-29T02:38:09.487Z,4.55
2017-01-29T02:38:50.138Z,4.53
2017-01-29T02:39:30.795Z,4.56
2017-01-29T02:40:11.444Z,4.52
2017-01-29T02:40:52.124Z,4.55
2017-01-29T02:41:32.757Z,4.44
2017-01-29T02:42:13.407Z,4.49
2017-01-29T02:42:54.059Z,4.45
2017-01-29T02:43:34.710Z,4.37
2017-01-29T02:44:15.367Z,4.41
2017-01-29T02:44:56.014Z,4.4
2017-01-29T02:45:36.571Z,4.38
2017-01-29T02:46:17.242Z,4.4
2017-01-29T02:46:57.894Z,4.34
2017-01-29T02:47:38.577Z,4.35
2017-01-29T02:48:19.184Z,4.34
2017-01-29T02:48:59.854Z,4.32
2017-01-29T02:49:40.499Z,4.35
2017-01-29T02:50:21.156Z,4.32
2017-01-29T02:51:01.789Z,4.31
2017-01-29T02:51:42.368Z,4.32
2017-01-29T02:52:23.011Z,4.28
2017-01-29T02:53:03.649Z,4.31
2017-01-29T02:53:44.203Z,4.31
2017-01-29T02:54:24.876Z,4.28
2017-01-29T02:55:05.504Z,4.32
2017-01-29T02:55:46.066Z,4.32
2017-01-29T02:56:26.725Z,4.24
2017-01-29T02:57:07.414Z,4.28
2017-01-29T02:57:48.013Z,4.24
2017-01-29T02:58:28.581Z,4.19
2017-01-29T02:59:09.235Z,4.26
2017-01-29T02:59:49.817Z,4.19
2017-01-29T03:00:30.420Z,4.16
2017-01-29T03:01:10.995Z,4.28
2017-01-29T03:01:51.635Z,4.14
2017-01-29T03:02:32.231Z,4.24
2017-01-29T03:03:12.829Z,4.26
2017-01-29T03:03:53.404Z,4.24
2017-01-29T03:04:34.053Z,4.17
2017-01-29T03:05:14.643Z,4.16
2017-01-29T03:05:55.232Z,4.2
2017-01-29T03:06:35.886Z,4.2
2017-01-29T03:07:17.567Z,4.16
2017-01-29T03:07:58.213Z,4.17
2017-01-29T03:08:38.868Z,4.16
2017-01-29T03:09:19.521Z,4.14
2017-01-29T03:10:00.173Z,4.14
2017-01-29T03:10:40.731Z,4.12
2017-01-29T03:11:21.403Z,4.12
2017-01-29T03:12:02.027Z,4.12
2017-01-29T03:12:43.621Z,4.14
2017-01-29T03:13:24.218Z,4.14
2017-01-29T03:14:04.918Z,4.22
2017-01-29T03:14:45.489Z,4.1
2017-01-29T03:15:26.126Z,4.16
2017-01-29T03:16:06.719Z,4.2
2017-01-29T03:16:47.370Z,4.17
2017-01-29T03:17:28.027Z,4.12
2017-01-29T03:18:08.700Z,4.12
2017-01-29T03:18:50.364Z,4.12
2017-01-29T03:19:31.013Z,4.12
2017-01-29T03:20:11.667Z,4.12
2017-01-29T03:20:52.325Z,4.13
2017-01-29T03:21:32.972Z,4.06
2017-01-29T03:22:13.620Z,4.12
2017-01-29T03:22:54.273Z,4.08
2017-01-29T03:23:34.933Z,4.1
2017-01-29T03:24:15.584Z,4.12
2017-01-29T03:24:56.240Z,4.14
2017-01-29T03:25:36.879Z,4.12
2017-01-29T03:26:17.537Z,4.12
2017-01-29T03:26:58.196Z,4.02
2017-01-29T03:27:38.849Z,4.02
2017-01-29T03:28:19.495Z,4.05
2017-01-29T03:29:00.155Z,3.98
2017-01-29T03:29:40.797Z,3.98
2017-01-29T03:30:21.456Z,3.92
2017-01-29T03:31:02.112Z,4.01
2017-01-29T03:31:42.761Z,3.96
2017-01-29T03:32:23.412Z,4.02
2017-01-29T03:33:04.076Z,3.98
2017-01-29T03:33:44.747Z,4.01
2017-01-29T03:34:25.377Z,4.01
2017-01-29T03:35:06.028Z,3.98
2017-01-29T03:35:46.676Z,3.96
2017-01-29T03:36:27.243Z,3.98
2017-01-29T03:37:07.837Z,4.02
2017-01-29T03:37:48.476Z,4.04
2017-01-29T03:38:29.051Z,3.92
2017-01-29T03:39:09.696Z,3.96
2017-01-29T03:39:50.337Z,3.99
2017-01-29T03:40:30.902Z,3.94
2017-01-29T03:41:11.555Z,3.99
2017-01-29T03:41:52.218Z,3.96
2017-01-29T03:42:32.857Z,3.98
2017-01-29T03:43:13.508Z,4.01
2017-01-29T03:43:55.228Z,3.92
2017-01-29T03:44:35.837Z,3.95
2017-01-29T03:45:16.503Z,3.96
2017-01-29T03:45:57.153Z,4.04
2017-01-29T03:46:37.814Z,3.96
2017-01-29T03:47:18.455Z,3.95
2017-01-29T03:47:59.119Z,3.96
2017-01-29T03:48:39.786Z,3.96
2017-01-29T03:49:20.424Z,3.98
2017-01-29T03:50:01.086Z,3.99
2017-01-29T03:50:41.732Z,3.91
2017-01-29T03:51:22.377Z,3.91
2017-01-29T03:52:03.031Z,3.98
2017-01-29T03:52:43.692Z,3.96
2017-01-29T03:53:24.326Z,3.92
2017-01-29T03:54:04.996Z,3.88
2017-01-29T03:54:45.638Z,3.96
2017-01-29T03:55:26.300Z,3.99
2017-01-29T03:56:06.944Z,3.88
2017-01-29T03:56:47.605Z,3.94
2017-01-29T03:57:28.248Z,3.91
2017-01-29T03:58:08.890Z,3.86
2017-01-29T03:58:49.565Z,3.95
2017-01-29T03:59:30.222Z,3.99
2017-01-29T04:00:10.879Z,3.88
2017-01-29T04:00:51.514Z,4.02
2017-01-29T04:01:32.164Z,3.94
2017-01-29T04:02:12.845Z,3.94
2017-01-29T04:02:53.500Z,3.91
2017-01-29T04:03:35.154Z,3.98
2017-01-29T04:04:15.816Z,4.01
2017-01-29T04:04:56.465Z,3.95
2017-01-29T04:05:37.109Z,3.95
2017-01-29T04:06:17.752Z,3.91
2017-01-29T04:06:58.419Z,3.86
2017-01-29T04:07:39.080Z,3.92
2017-01-29T04:08:19.737Z,3.92
2017-01-29T04:09:00.389Z,3.92
2017-01-29T04:09:41.036Z,3.91
2017-01-29T04:10:22.715Z,3.78
2017-01-29T04:11:03.295Z,3.81
2017-01-29T04:11:43.906Z,3.84
2017-01-29T04:12:24.499Z,3.78
2017-01-29T04:13:05.073Z,3.87
2017-01-29T04:13:45.724Z,3.73
2017-01-29T04:14:26.418Z,3.77
2017-01-29T04:15:06.992Z,3.8
2017-01-29T04:15:47.560Z,3.8
2017-01-29T04:16:28.235Z,3.77
2017-01-29T04:17:08.822Z,3.76
2017-01-29T04:17:49.423Z,3.73
2017-01-29T04:18:29.986Z,3.73
2017-01-29T04:19:10.644Z,3.68
2017-01-29T04:19:51.226Z,3.73
2017-01-29T04:20:31.825Z,3.62
2017-01-29T04:21:12.477Z,3.68
2017-01-29T04:21:54.052Z,3.68
2017-01-29T04:22:34.701Z,3.6
2017-01-29T04:23:15.356Z,3.63
2017-01-29T04:23:56.018Z,3.65
2017-01-29T04:24:36.667Z,3.5
2017-01-29T04:25:17.320Z,3.62
2017-01-29T04:25:57.890Z,3.63
2017-01-29T04:26:38.544Z,3.55
2017-01-29T04:27:19.181Z,3.58
2017-01-29T04:27:59.747Z,3.55
2017-01-29T04:28:40.386Z,3.55
2017-01-29T04:29:21.042Z,3.47
2017-01-29T04:30:01.586Z,3.56
2017-01-29T04:30:42.254Z,3.44
2017-01-29T04:31:22.885Z,3.47
2017-01-29T04:32:03.541Z,3.42
2017-01-29T04:32:44.195Z,3.45
2017-01-29T04:33:24.841Z,3.47
2017-01-29T04:34:05.498Z,3.44
2017-01-29T04:34:46.154Z,3.42
2017-01-29T04:35:26.813Z,3.5
2017-01-29T04:36:07.375Z,3.4
2017-01-29T04:36:48.028Z,3.34
2017-01-29T04:37:28.616Z,3.36
2017-01-29T04:38:09.209Z,3.41
2017-01-29T04:38:49.785Z,3.26
2017-01-29T04:39:30.431Z,3.29
2017-01-29T04:40:11.022Z,3.31
2017-01-29T04:40:51.629Z,3.23
2017-01-29T04:41:32.273Z,3.23
2017-01-29T04:42:12.938Z,3.26
2017-01-29T04:42:53.575Z,3.22
2017-01-29T04:43:34.237Z,3.23
2017-01-29T04:44:14.895Z,3.28
2017-01-29T04:44:55.537Z,3.28
2017-01-29T04:45:36.198Z,3.19
2017-01-29T04:46:16.849Z,3.19
2017-01-29T04:46:57.499Z,3.14
2017-01-29T04:47:38.155Z,3.13
2017-01-29T04:48:18.798Z,3.07
2017-01-29T04:48:59.460Z,3.1
2017-01-29T04:49:40.114Z,3.13
2017-01-29T04:50:20.767Z,3.1
2017-01-29T04:51:01.395Z,3.08
2017-01-29T04:51:41.989Z,3.08
2017-01-29T04:52:22.584Z,3.03
2017-01-29T04:53:03.174Z,3.03
2017-01-29T04:53:43.724Z,3.04
2017-01-29T04:54:24.390Z,3.05
2017-01-29T04:55:04.991Z,3.03
2017-01-29T04:55:45.579Z,3
2017-01-29T04:56:26.143Z,3.07
2017-01-29T04:57:06.792Z,3
2017-01-29T04:57:47.454Z,3
2017-01-29T04:58:28.101Z,2.95
2017-01-29T04:59:08.735Z,2.98
2017-01-29T04:59:49.312Z,2.97
2017-01-29T05:00:29.965Z,2.93
2017-01-29T05:01:10.622Z,2.9
2017-01-29T05:01:51.277Z,2.87
2017-01-29T05:02:31.924Z,2.86
2017-01-29T05:03:12.579Z,2.82
2017-01-29T05:03:53.222Z,2.85
2017-01-29T05:04:33.888Z,2.89
2017-01-29T05:05:14.545Z,2.86
2017-01-29T05:05:55.177Z,2.83
2017-01-29T05:06:35.822Z,2.83
2017-01-29T05:07:16.375Z,2.85
2017-01-29T05:07:57.058Z,2.83
2017-01-29T05:08:37.676Z,2.82
2017-01-29T05:09:18.221Z,2.86
2017-01-29T05:09:58.898Z,2.79
2017-01-29T05:10:39.543Z,2.71
2017-01-29T05:11:20.093Z,2.77
2017-01-29T05:12:00.759Z,2.8
2017-01-29T05:12:41.347Z,2.72
2017-01-29T05:13:21.941Z,2.69
2017-01-29T05:14:02.502Z,2.67
2017-01-29T05:14:43.161Z,2.72
2017-01-29T05:15:23.752Z,2.71
2017-01-29T05:16:04.354Z,2.77
2017-01-29T05:16:44.923Z,2.75
2017-01-29T05:17:25.572Z,2.71
2017-01-29T05:18:06.255Z,2.71
2017-01-29T05:18:46.864Z,2.77
2017-01-29T05:19:27.450Z,2.62
2017-01-29T05:20:09.093Z,2.67
2017-01-29T05:20:49.690Z,2.62
2017-01-29T05:21:30.343Z,2.64
2017-01-29T05:22:11.004Z,2.64
2017-01-29T05:22:51.663Z,2.61
2017-01-29T05:23:32.339Z,2.53
2017-01-29T05:24:12.955Z,2.56
2017-01-29T05:24:53.608Z,2.61
2017-01-29T05:25:34.259Z,2.54
2017-01-29T05:26:14.912Z,2.53
2017-01-29T05:26:55.536Z,2.5
2017-01-29T05:27:36.190Z,2.57
2017-01-29T05:28:16.846Z,2.5
2017-01-29T05:28:57.499Z,2.51
2017-01-29T05:29:38.150Z,2.5
2017-01-29T05:30:19.826Z,2.43
2017-01-29T05:31:00.490Z,2.54
2017-01-29T05:31:41.127Z,2.5
2017-01-29T05:32:21.791Z,2.43
2017-01-29T05:33:02.438Z,2.43
2017-01-29T05:33:43.101Z,2.5
2017-01-29T05:34:23.736Z,2.46
2017-01-29T05:35:04.414Z,2.5
2017-01-29T05:35:45.091Z,2.43
2017-01-29T05:36:25.710Z,2.43
2017-01-29T05:37:06.363Z,2.38
2017-01-29T05:37:47.012Z,2.39
2017-01-29T05:38:27.654Z,2.39
2017-01-29T05:39:08.310Z,2.42
2017-01-29T05:39:48.975Z,2.29
2017-01-29T05:40:29.623Z,2.35
2017-01-29T05:41:10.260Z,2.32
2017-01-29T05:41:50.917Z,2.29
2017-01-29T05:42:31.574Z,2.35
2017-01-29T05:43:12.227Z,2.38
2017-01-29T05:43:52.880Z,2.35
2017-01-29T05:44:33.526Z,2.35
2017-01-29T05:45:14.201Z,2.28
2017-01-29T05:45:54.835Z,2.31
2017-01-29T05:46:35.490Z,2.26
2017-01-29T05:47:16.144Z,2.28
2017-01-29T05:47:56.797Z,2.28
2017-01-29T05:48:37.455Z,2.24
2017-01-29T05:49:18.100Z,2.31
2017-01-29T05:49:58.761Z,2.25
2017-01-29T05:50:39.413Z,2.26
2017-01-29T05:51:21.091Z,2.26
2017-01-29T05:52:01.745Z,2.24
2017-01-29T05:52:42.390Z,2.25
2017-01-29T05:53:23.047Z,2.2
2017-01-29T05:54:03.680Z,2.29
2017-01-29T05:54:45.274Z,2.31
2017-01-29T05:55:25.909Z,2.2
2017-01-29T05:56:06.580Z,2.29
2017-01-29T05:56:47.234Z,2.26
2017-01-29T05:57:27.912Z,2.28
2017-01-29T05:58:08.566Z,2.18
2017-01-29T05:58:49.171Z,2.25
2017-01-29T05:59:29.842Z,2.2
2017-01-29T06:00:10.505Z,2.25
2017-01-29T06:00:51.074Z,2.26
2017-01-29T06:01:31.699Z,2.31
2017-01-29T06:02:12.354Z,2.24
2017-01-29T06:02:53.001Z,2.24
2017-01-29T06:03:33.671Z,2.24
2017-01-29T06:04:14.316Z,2.32
2017-01-29T06:04:54.983Z,2.36
2017-01-29T06:05:35.611Z,2.43
2017-01-29T06:06:16.277Z,2.36
2017-01-29T06:06:56.902Z,2.43
2017-01-29T06:07:37.586Z,2.44
2017-01-29T06:08:18.257Z,2.39
2017-01-29T06:08:58.879Z,2.49
2017-01-29T06:09:39.530Z,2.51
2017-01-29T06:10:20.185Z,2.49
2017-01-29T06:11:00.843Z,2.54
2017-01-29T06:11:41.492Z,2.54
2017-01-29T06:12:22.145Z,2.56
2017-01-29T06:13:02.801Z,2.53
2017-01-29T06:13:43.451Z,2.46
2017-01-29T06:14:24.106Z,2.64
2017-01-29T06:15:04.747Z,2.68
2017-01-29T06:15:45.403Z,2.68
2017-01-29T06:16:26.057Z,2.61
2017-01-29T06:17:06.710Z,2.68
2017-01-29T06:17:47.363Z,2.65
2017-01-29T06:18:28.015Z,2.68
2017-01-29T06:19:08.745Z,2.71
2017-01-29T06:19:49.332Z,2.64
2017-01-29T06:20:30.003Z,2.71
2017-01-29T06:21:10.633Z,2.74
2017-01-29T06:21:51.266Z,2.72
2017-01-29T06:22:31.874Z,2.71
2017-01-29T06:23:12.481Z,2.85
2017-01-29T06:23:54.151Z,2.89
2017-01-29T06:24:34.714Z,2.71
2017-01-29T06:25:15.363Z,2.82
2017-01-29T06:25:56.000Z,2.85
2017-01-29T06:26:36.583Z,2.86
2017-01-29T06:27:17.227Z,2.9
2017-01-29T06:27:57.921Z,2.87
2017-01-29T06:28:38.512Z,2.87
2017-01-29T06:29:19.077Z,2.85
2017-01-29T06:29:59.730Z,2.87
2017-01-29T06:30:40.323Z,2.89
2017-01-29T06:31:20.920Z,2.95
2017-01-29T06:32:01.479Z,2.92
2017-01-29T06:32:43.057Z,2.9
2017-01-29T06:33:23.652Z,2.93
2017-01-29T06:34:04.251Z,2.93
2017-01-29T06:34:44.809Z,2.95
2017-01-29T06:35:25.466Z,2.92
2017-01-29T06:36:06.069Z,2.98
2017-01-29T06:36:46.632Z,2.98
2017-01-29T06:37:27.216Z,3
2017-01-29T06:38:07.859Z,3.03
2017-01-29T06:38:48.419Z,2.92
2017-01-29T06:39:29.074Z,2.93
2017-01-29T06:40:09.715Z,2.93
2017-01-29T06:40:50.327Z,2.97
2017-01-29T06:41:30.927Z,3.03
2017-01-29T06:42:11.597Z,2.98
2017-01-29T06:42:52.236Z,2.98
2017-01-29T06:43:32.909Z,3.04
2017-01-29T06:44:13.543Z,3.01
2017-01-29T06:44:54.193Z,3.03
2017-01-29T06:45:34.847Z,2.95
2017-01-29T06:46:15.496Z,3.05
2017-01-29T06:46:56.201Z,3.1
2017-01-29T06:47:36.792Z,3.1
2017-01-29T06:48:17.356Z,2.98
2017-01-29T06:48:58.010Z,3.1
2017-01-29T06:49:38.610Z,3.07
2017-01-29T06:50:19.203Z,3.03
2017-01-29T06:50:59.754Z,3.07
2017-01-29T06:51:40.411Z,3.08
2017-01-29T06:52:21.064Z,2.97
2017-01-29T06:53:01.721Z,3.04
2017-01-29T06:53:42.370Z,3.01
2017-01-29T06:54:23.944Z,3.07
2017-01-29T06:55:04.597Z,3.08
2017-01-29T06:55:45.253Z,3.07
2017-01-29T06:56:25.903Z,3.07
2017-01-29T06:57:07.582Z,3.11
2017-01-29T06:57:48.233Z,3.03
2017-01-29T06:58:28.899Z,3.04
2017-01-29T06:59:09.536Z,3.01
2017-01-29T06:59:50.192Z,3.05
2017-01-29T07:00:30.855Z,3
2017-01-29T07:01:11.495Z,3.13
2017-01-29T07:01:52.105Z,3.14
2017-01-29T07:02:32.696Z,3.04
2017-01-29T07:03:13.228Z,3.08
2017-01-29T07:03:53.800Z,3.05
2017-01-29T07:04:35.418Z,3.1
2017-01-29T07:05:16.020Z,3.07
2017-01-29T07:05:56.607Z,3.1
2017-01-29T07:06:37.229Z,3.05
2017-01-29T07:07:17.892Z,3.07
2017-01-29T07:07:58.611Z,3.07
2017-01-29T07:08:39.193Z,3.1
2017-01-29T07:09:19.841Z,3.04
2017-01-29T07:10:00.502Z,3.05
2017-01-29T07:10:41.160Z,3.07
2017-01-29T07:11:21.823Z,3.1
2017-01-29T07:12:02.463Z,3.05
2017-01-29T07:12:43.103Z,3.07
2017-01-29T07:13:23.779Z,3.03
2017-01-29T07:14:04.415Z,3.08
2017-01-29T07:14:45.054Z,3.04
2017-01-29T07:15:25.720Z,3.07
2017-01-29T07:16:06.363Z,3.11
2017-01-29T07:16:47.033Z,3.05
2017-01-29T07:17:27.682Z,3.21
2017-01-29T07:18:08.324Z,3.19
2017-01-29T07:18:48.993Z,3.16
2017-01-29T07:19:29.630Z,3.16
2017-01-29T07:20:10.282Z,3.13
2017-01-29T07:20:50.962Z,3.11
2017-01-29T07:21:31.600Z,3.16
2017-01-29T07:22:12.241Z,3.14
2017-01-29T07:22:52.791Z,3.16
2017-01-29T07:23:33.456Z,3.21
2017-01-29T07:24:14.091Z,3.19
2017-01-29T07:24:54.733Z,3.21
2017-01-29T07:25:35.301Z,3.23
2017-01-29T07:26:15.949Z,3.26
2017-01-29T07:26:56.557Z,3.28
2017-01-29T07:27:37.157Z,3.28
2017-01-29T07:28:17.894Z,3.28
2017-01-29T07:28:58.558Z,3.28
2017-01-29T07:29:39.120Z,3.19
2017-01-29T07:30:19.788Z,3.21
2017-01-29T07:31:00.368Z,3.22
2017-01-29T07:31:40.989Z,3.32
2017-01-29T07:32:21.619Z,3.32
2017-01-29T07:33:02.278Z,3.19
2017-01-29T07:33:42.927Z,3.26
2017-01-29T07:34:23.580Z,3.29
2017-01-29T07:35:04.236Z,3.32
2017-01-29T07:35:44.893Z,3.31
2017-01-29T07:36:25.455Z,3.36
2017-01-29T07:37:06.104Z,3.29
2017-01-29T07:37:46.700Z,3.36
2017-01-29T07:38:27.298Z,3.31
2017-01-29T07:39:07.870Z,3.34
2017-01-29T07:39:48.510Z,3.4
2017-01-29T07:40:29.101Z,3.36
2017-01-29T07:41:09.702Z,3.36
2017-01-29T07:41:50.356Z,3.34
2017-01-29T07:42:31.002Z,3.37
2017-01-29T07:43:11.659Z,3.37
2017-01-29T07:43:52.314Z,3.44
2017-01-29T07:44:32.959Z,3.41
2017-01-29T07:45:13.616Z,3.37
2017-01-29T07:45:54.271Z,3.41
2017-01-29T07:46:34.833Z,3.45
2017-01-29T07:47:15.494Z,3.42
2017-01-29T07:47:56.149Z,3.4
2017-01-29T07:48:36.805Z,3.37
2017-01-29T07:49:17.454Z,3.4
2017-01-29T07:49:58.098Z,3.44
2017-01-29T07:50:38.761Z,3.47
2017-01-29T07:51:19.404Z,3.47
2017-01-29T07:52:00.055Z,3.5
2017-01-29T07:52:40.714Z,3.6
2017-01-29T07:53:21.401Z,3.59
2017-01-29T07:54:02.019Z,3.59
2017-01-29T07:54:42.706Z,3.58
2017-01-29T07:55:23.328Z,3.6
2017-01-29T07:56:03.990Z,3.5
2017-01-29T07:56:44.658Z,3.63
2017-01-29T07:57:25.291Z,3.63
2017-01-29T07:58:05.941Z,3.6
2017-01-29T07:58:46.593Z,3.63
2017-01-29T07:59:27.239Z,3.58
2017-01-29T08:00:07.904Z,3.68
2017-01-29T08:00:48.553Z,3.69
2017-01-29T08:01:29.201Z,3.59
2017-01-29T08:02:09.839Z,3.68
2017-01-29T08:02:50.510Z,3.73
2017-01-29T08:03:31.162Z,3.78
2017-01-29T08:04:11.813Z,3.65
2017-01-29T08:04:52.472Z,3.68
2017-01-29T08:05:33.118Z,3.66
2017-01-29T08:06:13.774Z,3.76
2017-01-29T08:06:54.368Z,3.68
2017-01-29T08:07:34.955Z,3.7
2017-01-29T08:08:15.514Z,3.77
2017-01-29T08:08:56.185Z,3.83
2017-01-29T08:09:36.774Z,3.81
2017-01-29T08:10:17.379Z,3.84
2017-01-29T08:10:57.946Z,3.81
2017-01-29T08:11:38.591Z,3.77
2017-01-29T08:12:19.238Z,3.81
2017-01-29T08:12:59.916Z,3.84
2017-01-29T08:13:41.566Z,3.84
2017-01-29T08:14:22.215Z,3.84
2017-01-29T08:15:02.875Z,3.84
2017-01-29T08:15:43.522Z,3.86
2017-01-29T08:16:24.186Z,3.95
2017-01-29T08:17:04.838Z,3.84
2017-01-29T08:17:45.479Z,3.84
2017-01-29T08:18:26.146Z,3.91
2017-01-29T08:19:06.837Z,3.88
2017-01-29T08:19:47.439Z,3.94
2017-01-29T08:20:28.098Z,3.92
2017-01-29T08:21:08.751Z,3.86
2017-01-29T08:21:49.404Z,3.92
2017-01-29T08:22:31.084Z,3.94
2017-01-29T08:23:11.732Z,3.92
2017-01-29T08:23:52.397Z,3.94
2017-01-29T08:24:33.043Z,3.91
2017-01-29T08:25:13.692Z,3.91
2017-01-29T08:25:54.346Z,3.92
2017-01-29T08:26:34.997Z,3.99
2017-01-29T08:27:15.635Z,3.96
2017-01-29T08:27:56.305Z,3.94
2017-01-29T08:28:36.957Z,3.92
2017-01-29T08:29:17.614Z,3.95
2017-01-29T08:29:58.265Z,3.95
2017-01-29T08:30:38.915Z,3.92
2017-01-29T08:31:19.644Z,3.96
2017-01-29T08:32:00.324Z,3.92
2017-01-29T08:32:40.978Z,3.92
2017-01-29T08:33:21.628Z,3.98
2017-01-29T08:34:02.281Z,4.01
2017-01-29T08:34:42.933Z,3.98
2017-01-29T08:35:23.588Z,4.01
2017-01-29T08:36:04.236Z,4.01
2017-01-29T08:36:44.860Z,3.88
2017-01-29T08:37:25.535Z,3.95
2017-01-29T08:38:06.094Z,3.99
2017-01-29T08:38:46.746Z,4.06
2017-01-29T08:39:27.336Z,3.91
2017-01-29T08:40:08.045Z,3.88
2017-01-29T08:40:48.602Z,4.02
2017-01-29T08:41:29.253Z,4.01
2017-01-29T08:42:09.908Z,3.99
2017-01-29T08:42:50.680Z,3.95
2017-01-29T08:43:31.420Z,3.91
2017-01-29T08:44:12.186Z,3.98
2017-01-29T08:44:52.927Z,3.91
2017-01-29T08:45:33.583Z,4.02
2017-01-29T08:46:14.354Z,4.01
2017-01-29T08:46:55.093Z,3.94
2017-01-29T08:47:35.745Z,3.94
2017-01-29T08:48:16.421Z,3.91
2017-01-29T08:48:57.259Z,3.91
2017-01-29T08:49:38.011Z,3.99
2017-01-29T08:50:18.665Z,3.94
2017-01-29T08:50:59.413Z,3.91
2017-01-29T08:51:40.164Z,3.96
2017-01-29T08:52:20.922Z,3.91
2017-01-29T08:53:01.677Z,3.98
2017-01-29T08:53:43.353Z,4.04
2017-01-29T08:54:24.110Z,3.96
2017-01-29T08:55:04.862Z,3.94
2017-01-29T08:55:45.620Z,3.99
2017-01-29T08:56:26.191Z,3.98
2017-01-29T08:57:06.924Z,4.02
2017-01-29T08:57:47.629Z,3.99
2017-01-29T08:58:28.333Z,3.94
2017-01-29T08:59:08.913Z,4.01
2017-01-29T08:59:49.666Z,3.96
2017-01-29T09:00:30.345Z,4.01
2017-01-29T09:01:10.946Z,3.98
2017-01-29T09:01:51.599Z,3.96
2017-01-29T09:02:32.251Z,3.98
2017-01-29T09:03:12.904Z,3.94
2017-01-29T09:03:55.506Z,3.91
2017-01-29T09:04:36.059Z,3.96